Time;durP1;ratioP1;P1;durP2;ratioP2;P2;SDS_P1;SDS_P2;PMS_P1;PMS_P2;Temp;Humidity;BMP_temperature;BMP_pressure;BME280_temperature;BME280_humidity;BME280_pressure;Samples;Min_cycle;Max_cycle;Signal;HPM_P1;HPM_P2
2022/05/14 00:01:36;;;;;;;51.15;9.27;;;12.20;99.90;;;;;;5035024;28;20049;-69
2022/05/14 00:04:03;;;;;;;49.20;7.40;;;12.20;99.90;;;;;;5035456;28;20033;-69
2022/05/14 00:06:30;;;;;;;41.08;7.38;;;12.20;99.90;;;;;;5035271;28;20025;-69
2022/05/14 00:08:56;;;;;;;45.92;7.82;;;12.30;99.90;;;;;;5035380;28;20029;-69
2022/05/14 00:14:08;;;;;;;57.47;8.02;;;12.30;99.90;;;;;;5034718;28;20572;-69
2022/05/14 00:16:35;;;;;;;37.50;8.57;;;12.30;99.90;;;;;;5035113;28;20045;-69
2022/05/14 00:19:02;;;;;;;47.70;8.43;;;12.30;99.90;;;;;;5035096;28;20021;-69
2022/05/14 00:21:28;;;;;;;49.40;9.27;;;12.30;99.90;;;;;;5034893;28;20025;-69
2022/05/14 00:23:53;;;;;;;46.90;8.60;;;12.30;99.90;;;;;;5034939;28;20036;-69
2022/05/14 00:26:20;;;;;;;45.10;8.82;;;12.30;99.90;;;;;;5034842;28;20036;-69
2022/05/14 00:28:46;;;;;;;55.88;9.15;;;12.30;99.90;;;;;;5035263;28;20029;-69
2022/05/14 00:31:12;;;;;;;54.20;8.98;;;12.40;99.90;;;;;;5034485;28;20427;-69
2022/05/14 00:33:37;;;;;;;56.60;10.02;;;12.40;99.90;;;;;;5034980;28;20512;-69
2022/05/14 00:36:04;;;;;;;63.25;9.32;;;12.40;99.90;;;;;;5034903;28;20025;-69
2022/05/14 00:38:30;;;;;;;32.97;7.93;;;12.40;99.90;;;;;;5034767;28;20389;-69
2022/05/14 00:41:01;;;;;;;41.35;7.82;;;12.30;99.90;;;;;;5034290;28;20484;-69
2022/05/14 00:43:27;;;;;;;42.35;9.32;;;12.40;99.90;;;;;;5034942;28;20045;-69
2022/05/14 00:46:07;;;;;;;46.00;8.63;;;12.40;99.90;;;;;;5034643;28;20033;-69
2022/05/14 00:48:38;;;;;;;56.42;8.23;;;12.40;99.90;;;;;;5034834;28;20042;-69
2022/05/14 00:51:04;;;;;;;45.67;7.88;;;12.40;99.90;;;;;;5035667;28;20022;-69
2022/05/14 00:53:38;;;;;;;48.08;9.32;;;12.40;99.90;;;;;;5035658;28;20033;-69
2022/05/14 00:56:11;;;;;;;47.20;9.63;;;12.40;99.90;;;;;;5034239;28;20489;-69
2022/05/14 00:58:54;;;;;;;53.53;8.25;;;12.40;99.90;;;;;;5034767;28;20034;-69
2022/05/14 01:01:19;;;;;;;44.95;7.85;;;12.40;99.90;;;;;;5034617;28;20428;-69
2022/05/14 01:03:45;;;;;;;42.13;8.32;;;12.40;99.90;;;;;;5034205;28;20021;-69
2022/05/14 01:06:14;;;;;;;47.47;9.27;;;12.40;99.90;;;;;;5034449;28;20033;-69
2022/05/14 01:08:42;;;;;;;51.50;8.98;;;12.40;99.90;;;;;;5033645;28;20025;-69
2022/05/14 01:11:08;;;;;;;46.05;7.85;;;12.40;99.90;;;;;;5033547;28;20029;-69
2022/05/14 01:13:33;;;;;;;53.10;8.40;;;12.40;99.90;;;;;;5034105;28;20111;-69
2022/05/14 01:16:02;;;;;;;54.65;8.00;;;12.40;99.90;;;;;;5033962;28;20033;-69
2022/05/14 01:18:31;;;;;;;48.08;8.52;;;12.40;99.90;;;;;;5034460;28;20171;-69
2022/05/14 01:21:18;;;;;;;49.22;9.00;;;12.40;99.90;;;;;;5033724;28;20093;-69
2022/05/14 01:26:36;;;;;;;48.80;8.40;;;12.30;99.90;;;;;;5033846;28;20086;-69
2022/05/14 01:29:11;;;;;;;51.78;9.07;;;12.40;99.90;;;;;;5033925;28;20405;-69
2022/05/14 01:31:38;;;;;;;48.10;9.13;;;12.30;99.90;;;;;;5033426;28;20079;-69
2022/05/14 01:34:07;;;;;;;49.88;9.10;;;12.40;99.90;;;;;;5033752;28;20044;-69
2022/05/14 01:36:35;;;;;;;43.35;8.43;;;12.30;99.90;;;;;;5033807;28;20027;-69
2022/05/14 01:39:01;;;;;;;53.67;8.77;;;12.40;99.90;;;;;;5033796;28;20491;-69
2022/05/14 01:41:26;;;;;;;53.70;8.95;;;12.40;99.90;;;;;;5033406;28;20425;-69
2022/05/14 01:43:52;;;;;;;46.10;8.52;;;12.40;99.90;;;;;;5032562;28;20087;-69
2022/05/14 01:46:18;;;;;;;48.85;10.10;;;12.40;99.90;;;;;;5033652;28;20086;-69
2022/05/14 01:48:44;;;;;;;50.67;9.10;;;12.40;99.90;;;;;;5034176;28;20032;-69
2022/05/14 01:51:09;;;;;;;50.60;10.02;;;12.40;99.90;;;;;;5033710;28;20523;-69
2022/05/14 01:53:35;;;;;;;42.67;8.55;;;12.30;99.90;;;;;;5032911;28;20065;-69
2022/05/14 01:56:01;;;;;;;42.13;9.73;;;12.40;99.90;;;;;;5033413;28;20037;-69
2022/05/14 01:58:39;;;;;;;51.50;8.93;;;12.40;99.90;;;;;;5033523;28;20025;-69
2022/05/14 02:01:17;;;;;;;59.08;9.23;;;12.30;99.90;;;;;;5034105;28;20425;-69
2022/05/14 02:03:46;;;;;;;41.00;8.43;;;12.40;99.90;;;;;;5033075;28;20060;-69
2022/05/14 02:06:13;;;;;;;39.80;9.20;;;12.30;99.90;;;;;;5033579;28;20500;-69
2022/05/14 02:08:39;;;;;;;52.20;9.15;;;12.40;99.90;;;;;;5034518;28;20088;-69
2022/05/14 02:11:08;;;;;;;59.83;9.60;;;12.30;99.90;;;;;;5032999;28;20029;-69
2022/05/14 02:13:34;;;;;;;48.10;8.07;;;12.30;99.90;;;;;;5033575;28;20168;-69
2022/05/14 02:16:00;;;;;;;59.40;8.77;;;12.30;99.90;;;;;;5033343;28;20025;-69
2022/05/14 02:18:26;;;;;;;51.75;9.60;;;12.30;99.90;;;;;;5033289;28;20025;-69
2022/05/14 02:20:51;;;;;;;45.83;10.50;;;12.20;99.90;;;;;;5032849;28;20029;-69
2022/05/14 02:23:17;;;;;;;49.38;8.73;;;12.30;99.90;;;;;;5036959;28;20120;-69
2022/05/14 02:25:43;;;;;;;47.35;9.05;;;12.20;99.90;;;;;;5037276;28;20114;-69
2022/05/14 02:28:09;;;;;;;50.10;8.00;;;12.30;99.90;;;;;;5037258;28;20036;-69
2022/05/14 02:30:35;;;;;;;67.50;9.77;;;12.20;99.90;;;;;;5037205;28;20026;-69
2022/05/14 02:33:01;;;;;;;48.13;10.43;;;12.20;99.90;;;;;;5035155;28;20035;-69
2022/05/14 02:35:26;;;;;;;60.08;9.27;;;12.20;99.90;;;;;;5036979;28;20021;-69
2022/05/14 02:37:52;;;;;;;59.70;9.60;;;12.20;99.90;;;;;;5037030;28;20052;-69
2022/05/14 02:40:18;;;;;;;56.47;9.80;;;12.20;99.90;;;;;;5037031;28;20104;-69
2022/05/14 02:42:43;;;;;;;59.45;9.32;;;12.20;99.90;;;;;;5036531;28;20104;-69
2022/05/14 02:45:12;;;;;;;54.70;8.20;;;12.20;99.90;;;;;;5036820;28;20029;-69
2022/05/14 02:47:37;;;;;;;39.70;8.38;;;12.20;99.90;;;;;;5037135;28;20026;-69
2022/05/14 02:50:05;;;;;;;43.95;7.78;;;12.10;99.90;;;;;;5037000;28;20025;-69
2022/05/14 02:52:31;;;;;;;49.38;8.23;;;12.20;99.90;;;;;;5037023;28;20078;-69
2022/05/14 02:54:56;;;;;;;57.33;10.38;;;12.20;99.90;;;;;;5036787;28;20101;-69
2022/05/14 02:57:22;;;;;;;53.33;7.40;;;12.20;99.90;;;;;;5036006;28;20374;-69
2022/05/14 02:59:47;;;;;;;54.45;9.50;;;12.10;99.90;;;;;;5036716;28;20493;-69
2022/05/14 03:02:13;;;;;;;43.95;8.95;;;12.10;99.90;;;;;;5036509;28;20470;-69
2022/05/14 03:04:40;;;;;;;69.72;10.32;;;12.10;99.90;;;;;;5036522;28;20025;-69
2022/05/14 03:07:07;;;;;;;47.90;7.63;;;12.10;99.90;;;;;;5036467;28;20105;-69
2022/05/14 03:09:34;;;;;;;46.53;8.75;;;12.10;99.90;;;;;;5035901;28;20474;-69
2022/05/14 03:12:00;;;;;;;49.25;8.60;;;12.10;99.90;;;;;;5036761;28;20040;-69
2022/05/14 03:14:25;;;;;;;53.03;9.27;;;12.10;99.90;;;;;;5037722;28;20034;-69
2022/05/14 03:16:51;;;;;;;50.22;9.57;;;12.10;99.90;;;;;;5038136;28;20025;-69
2022/05/14 03:19:17;;;;;;;44.97;9.27;;;12.00;99.90;;;;;;5035887;28;20101;-69
2022/05/14 03:21:43;;;;;;;50.45;8.77;;;12.00;99.90;;;;;;5036252;28;20033;-69
2022/05/14 03:24:10;;;;;;;61.03;9.15;;;12.00;99.90;;;;;;5036222;28;20075;-69
2022/05/14 03:26:39;;;;;;;70.53;10.10;;;12.00;99.90;;;;;;5035626;28;20025;-69
2022/05/14 03:29:04;;;;;;;60.90;11.40;;;12.10;99.90;;;;;;5036185;28;20096;-69
2022/05/14 03:31:31;;;;;;;63.30;10.88;;;12.00;99.90;;;;;;5035961;28;20048;-69
2022/05/14 03:33:57;;;;;;;46.38;8.70;;;12.00;99.90;;;;;;5035011;28;20025;-69
2022/05/14 03:36:23;;;;;;;39.33;8.40;;;12.00;99.90;;;;;;5035852;28;20026;-69
2022/05/14 03:38:49;;;;;;;52.03;10.18;;;12.00;99.90;;;;;;5035421;28;20363;-69
2022/05/14 03:41:17;;;;;;;57.05;11.73;;;12.00;99.90;;;;;;5035978;28;20017;-69
2022/05/14 03:43:44;;;;;;;61.70;10.30;;;11.90;99.90;;;;;;5036080;28;20034;-69
2022/05/14 03:46:10;;;;;;;73.50;11.82;;;11.90;99.90;;;;;;5034405;28;20476;-69
2022/05/14 03:48:36;;;;;;;42.17;8.18;;;12.00;99.90;;;;;;5035977;28;20096;-69
2022/05/14 03:51:03;;;;;;;52.38;9.07;;;11.90;99.90;;;;;;5035454;28;20108;-69
2022/05/14 03:53:29;;;;;;;52.45;9.27;;;11.90;99.90;;;;;;5035560;28;20109;-69
2022/05/14 03:55:55;;;;;;;52.20;7.93;;;11.90;99.90;;;;;;5034174;28;20116;-69
2022/05/14 03:58:21;;;;;;;59.22;9.70;;;11.90;99.90;;;;;;5035322;28;20080;-69
2022/05/14 04:00:46;;;;;;;64.15;9.40;;;11.90;99.90;;;;;;5035731;28;20021;-69
2022/05/14 04:03:13;;;;;;;67.03;10.98;;;11.90;99.90;;;;;;5035613;28;20108;-69
2022/05/14 04:05:38;;;;;;;57.35;9.77;;;11.90;99.90;;;;;;5035587;28;20033;-69
2022/05/14 04:08:04;;;;;;;54.38;8.60;;;12.00;99.90;;;;;;5035515;28;20037;-69
2022/05/14 04:10:30;;;;;;;59.15;9.98;;;12.00;99.90;;;;;;5034860;28;20029;-69
2022/05/14 04:12:56;;;;;;;58.75;9.57;;;11.90;99.90;;;;;;5035142;28;20025;-69
2022/05/14 04:15:23;;;;;;;56.30;10.48;;;11.90;99.90;;;;;;5035211;28;20021;-69
2022/05/14 04:17:50;;;;;;;57.03;10.18;;;11.90;99.90;;;;;;5033822;28;20021;-69
2022/05/14 04:20:16;;;;;;;60.13;9.23;;;11.90;99.90;;;;;;5035080;28;20105;-69
2022/05/14 04:22:41;;;;;;;57.88;10.00;;;11.90;99.90;;;;;;5034658;28;20057;-69
2022/05/14 04:25:07;;;;;;;63.95;10.35;;;11.90;99.90;;;;;;5035600;28;20219;-69
2022/05/14 04:27:33;;;;;;;66.38;12.75;;;11.90;99.90;;;;;;5034826;28;20025;-69
2022/05/14 04:29:59;;;;;;;55.08;11.02;;;11.90;99.90;;;;;;5035020;28;20025;-69
2022/05/14 04:32:24;;;;;;;60.65;11.57;;;11.90;99.90;;;;;;5035075;28;20109;-69
2022/05/14 04:34:50;;;;;;;58.47;8.23;;;11.90;99.90;;;;;;5034983;28;20033;-69
2022/05/14 04:37:16;;;;;;;68.97;10.68;;;12.00;99.90;;;;;;5034392;28;20026;-69
2022/05/14 04:39:41;;;;;;;67.38;8.80;;;12.00;99.90;;;;;;5034936;28;20021;-69
2022/05/14 04:42:09;;;;;;;63.75;10.57;;;12.00;99.90;;;;;;5034790;28;20031;-69
2022/05/14 04:44:37;;;;;;;46.80;11.07;;;12.00;99.90;;;;;;5034515;28;20032;-69
2022/05/14 04:47:04;;;;;;;63.03;11.90;;;12.00;99.90;;;;;;5034489;28;20504;-69
2022/05/14 04:49:29;;;;;;;74.60;11.48;;;12.00;99.90;;;;;;5034138;28;20071;-69
2022/05/14 04:51:56;;;;;;;54.58;9.85;;;12.00;99.90;;;;;;5034704;28;20378;-69
2022/05/14 04:54:22;;;;;;;58.75;10.18;;;12.00;99.90;;;;;;5034365;28;20028;-69
2022/05/14 04:56:48;;;;;;;61.08;10.70;;;12.00;99.90;;;;;;5034207;28;20045;-69
2022/05/14 04:59:14;;;;;;;60.90;10.15;;;12.10;99.90;;;;;;5034615;28;20087;-69
2022/05/14 05:03:16;;;;;;;64.03;9.77;;;12.10;99.90;;;;;;5033913;28;20022;-69
2022/05/14 05:04:32;;;;;;;68.63;11.40;;;12.10;99.90;;;;;;5034179;28;20033;-69
2022/05/14 05:06:58;;;;;;;62.70;10.68;;;12.20;99.90;;;;;;5034252;28;20121;-69
2022/05/14 05:09:23;;;;;;;73.15;10.85;;;12.20;99.90;;;;;;5034719;28;20064;-69
2022/05/14 05:11:50;;;;;;;63.20;10.85;;;12.20;99.90;;;;;;5034383;28;20021;-69
2022/05/14 05:14:16;;;;;;;56.95;11.57;;;12.20;99.90;;;;;;5034387;28;20017;-69
2022/05/14 05:16:42;;;;;;;64.10;10.60;;;12.20;99.90;;;;;;5033551;28;20112;-69
2022/05/14 05:19:07;;;;;;;62.00;12.00;;;12.20;99.90;;;;;;5034140;28;20053;-69
2022/05/14 05:21:33;;;;;;;60.80;12.35;;;12.30;99.90;;;;;;5033952;28;20474;-69
2022/05/14 05:23:59;;;;;;;65.95;10.80;;;12.30;99.90;;;;;;5034235;28;20076;-69
2022/05/14 05:26:24;;;;;;;81.43;12.98;;;12.30;99.90;;;;;;5033135;28;20052;-69
2022/05/14 05:28:50;;;;;;;67.93;10.82;;;12.30;99.90;;;;;;5034312;28;20428;-69
2022/05/14 05:31:17;;;;;;;68.07;10.82;;;12.40;99.90;;;;;;5033890;28;20033;-69
2022/05/14 05:33:43;;;;;;;64.75;11.70;;;12.40;99.90;;;;;;5033993;28;20030;-69
2022/05/14 05:36:09;;;;;;;73.25;12.40;;;12.50;99.90;;;;;;5034055;28;20032;-69
2022/05/14 05:38:34;;;;;;;72.25;10.48;;;12.50;99.90;;;;;;5033566;28;20053;-69
2022/05/14 05:41:00;;;;;;;71.63;12.32;;;12.40;99.90;;;;;;5035534;28;20022;-69
2022/05/14 05:43:26;;;;;;;49.42;9.85;;;12.40;99.90;;;;;;5034473;28;20057;-69
2022/05/14 05:45:52;;;;;;;65.57;11.75;;;12.40;99.90;;;;;;5033636;28;20025;-69
2022/05/14 05:48:18;;;;;;;60.72;10.63;;;12.50;99.90;;;;;;5033553;28;20057;-69
2022/05/14 05:50:48;;;;;;;72.55;12.45;;;12.60;99.90;;;;;;5033274;28;20017;-70
2022/05/14 05:53:14;;;;;;;66.75;11.75;;;12.60;99.90;;;;;;5033565;28;20108;-69
2022/05/14 05:58:26;;;;;;;62.47;10.50;;;12.60;99.90;;;;;;5057537;23;20103;-68
2022/05/14 06:00:51;;;;;;;82.43;10.80;;;12.60;99.90;;;;;;5033616;28;20061;-68
2022/05/14 06:03:17;;;;;;;54.92;10.40;;;12.60;99.90;;;;;;5033000;28;20052;-67
2022/05/14 06:05:43;;;;;;;73.72;12.68;;;12.70;99.90;;;;;;5033308;28;20029;-68
2022/05/14 06:08:15;;;;;;;66.80;9.23;;;12.70;99.90;;;;;;5033300;28;20060;-68
2022/05/14 06:10:41;;;;;;;60.95;11.30;;;12.70;99.90;;;;;;5033293;28;20044;-67
2022/05/14 06:13:09;;;;;;;60.47;10.68;;;12.70;99.90;;;;;;5032940;28;20112;-66
2022/05/14 06:15:36;;;;;;;68.43;11.65;;;12.80;99.90;;;;;;5032978;28;20112;-67
2022/05/14 06:18:03;;;;;;;57.08;9.25;;;12.80;99.90;;;;;;5033176;28;20029;-67
2022/05/14 06:20:29;;;;;;;64.80;10.00;;;12.90;99.90;;;;;;5033092;28;20123;-67
2022/05/14 06:22:55;;;;;;;56.83;12.20;;;12.90;99.90;;;;;;5032604;28;20516;-67
2022/05/14 06:25:21;;;;;;;54.30;10.50;;;13.00;99.90;;;;;;5033179;28;20029;-69
2022/05/14 06:27:46;;;;;;;65.82;10.48;;;13.00;99.90;;;;;;5032951;28;20029;-68
2022/05/14 06:30:12;;;;;;;71.72;9.93;;;13.00;99.90;;;;;;5033164;28;20018;-68
2022/05/14 06:32:38;;;;;;;61.97;9.75;;;13.10;99.90;;;;;;5032482;28;20034;-67
2022/05/14 06:35:06;;;;;;;59.08;8.65;;;13.20;99.90;;;;;;5033174;28;20541;-67
2022/05/14 06:37:31;;;;;;;43.78;9.50;;;13.30;99.90;;;;;;5032873;28;20018;-67
2022/05/14 06:39:57;;;;;;;48.70;8.68;;;13.20;99.90;;;;;;5032732;28;20029;-67
2022/05/14 06:42:22;;;;;;;63.72;10.40;;;13.20;99.90;;;;;;5032902;28;20029;-67
2022/05/14 06:44:48;;;;;;;66.60;10.05;;;13.20;99.90;;;;;;5033125;28;20051;-67
2022/05/14 06:47:13;;;;;;;56.80;9.40;;;13.30;99.90;;;;;;5033328;28;20026;-67
2022/05/14 06:49:39;;;;;;;73.60;10.75;;;13.40;99.90;;;;;;5032525;28;20021;-67
2022/05/14 06:52:06;;;;;;;57.35;9.93;;;13.70;99.90;;;;;;5032818;28;20493;-68
2022/05/14 06:54:35;;;;;;;67.45;11.52;;;14.10;99.90;;;;;;5032997;28;20123;-67
2022/05/14 06:57:02;;;;;;;54.03;9.45;;;14.40;99.90;;;;;;5032077;28;20108;-67
2022/05/14 06:59:28;;;;;;;54.90;9.15;;;14.50;99.90;;;;;;5032718;28;20028;-67
2022/05/14 07:01:53;;;;;;;60.63;9.90;;;14.20;99.90;;;;;;5032820;28;20400;-67
2022/05/14 07:07:05;;;;;;;52.20;9.05;;;14.20;99.90;;;;;;5032226;28;20041;-68
2022/05/14 07:09:31;;;;;;;71.18;11.70;;;14.20;99.90;;;;;;5034774;28;20030;-67
2022/05/14 07:12:00;;;;;;;54.88;10.23;;;14.40;99.90;;;;;;5036220;28;20021;-67
2022/05/14 07:14:27;;;;;;;64.38;9.15;;;14.50;99.90;;;;;;5035871;28;20029;-67
2022/05/14 07:16:54;;;;;;;41.55;7.72;;;14.70;99.90;;;;;;5036299;28;20389;-67
2022/05/14 07:19:20;;;;;;;43.67;8.82;;;14.90;99.90;;;;;;5036384;28;20021;-67
2022/05/14 07:21:48;;;;;;;50.03;8.60;;;14.70;99.90;;;;;;5036317;28;20021;-67
2022/05/14 07:24:22;;;;;;;62.53;11.18;;;14.50;99.90;;;;;;5036017;28;20095;-67
2022/05/14 07:26:51;;;;;;;56.65;8.65;;;14.30;99.90;;;;;;5035542;28;20362;-67
2022/05/14 07:29:19;;;;;;;47.97;7.38;;;14.20;99.90;;;;;;5036205;28;20033;-67
2022/05/14 07:31:45;;;;;;;60.28;8.85;;;14.30;99.90;;;;;;5036440;28;20030;-67
2022/05/14 07:34:11;;;;;;;51.20;8.80;;;14.40;99.90;;;;;;5036047;28;20026;-67
2022/05/14 07:37:10;;;;;;;48.05;8.50;;;14.70;99.90;;;;;;5035687;28;20492;-67
2022/05/14 07:39:42;;;;;;;40.72;6.82;;;14.80;99.90;;;;;;5024276;28;20114;-66
2022/05/14 07:42:13;;;;;;;49.92;8.77;;;14.80;99.90;;;;;;5036008;28;20018;-67
2022/05/14 07:44:41;;;;;;;53.72;7.97;;;15.00;99.90;;;;;;5035653;28;20147;-66
2022/05/14 07:47:08;;;;;;;43.33;9.30;;;15.00;99.90;;;;;;5035519;28;20036;-66
2022/05/14 07:49:34;;;;;;;56.67;10.10;;;14.90;99.90;;;;;;5035705;28;20037;-66
2022/05/14 07:52:01;;;;;;;44.65;8.40;;;14.90;99.90;;;;;;5035313;28;20041;-66
2022/05/14 07:54:28;;;;;;;55.10;9.00;;;14.80;99.90;;;;;;5035756;28;20034;-66
2022/05/14 07:56:55;;;;;;;52.15;8.13;;;14.70;99.90;;;;;;5035478;28;20113;-66
2022/05/14 07:59:20;;;;;;;55.78;9.10;;;14.60;99.90;;;;;;5035712;28;20075;-66
2022/05/14 08:01:46;;;;;;;50.47;8.82;;;14.70;99.90;;;;;;5035607;28;20033;-66
2022/05/14 08:04:12;;;;;;;42.08;7.45;;;14.80;99.90;;;;;;5034897;28;20052;-66
2022/05/14 08:06:38;;;;;;;42.83;7.90;;;15.10;99.90;;;;;;5035601;28;20072;-66
2022/05/14 08:09:04;;;;;;;37.70;8.25;;;15.20;99.90;;;;;;5035176;28;20065;-66
2022/05/14 08:11:31;;;;;;;39.83;8.48;;;15.10;99.90;;;;;;5035307;28;20163;-66
2022/05/14 08:13:58;;;;;;;49.90;7.40;;;15.00;99.90;;;;;;5034568;28;20064;-66
2022/05/14 08:16:24;;;;;;;37.80;8.07;;;14.80;99.90;;;;;;5035319;28;20029;-66
2022/05/14 08:18:50;;;;;;;43.08;8.13;;;14.80;99.90;;;;;;5035040;28;20056;-66
2022/05/14 08:26:44;;;;;;;;;;;14.50;99.90;;;;;;5035412;28;20140;-66
2022/05/14 08:29:10;;;;;;;40.75;7.97;;;14.50;99.90;;;;;;5035082;28;19909;-66
2022/05/14 08:31:35;;;;;;;41.22;7.65;;;14.40;99.90;;;;;;5034549;28;20397;-66
2022/05/14 08:34:01;;;;;;;46.13;7.72;;;14.40;99.90;;;;;;5034864;28;20524;-66
2022/05/14 08:36:26;;;;;;;47.70;8.35;;;14.50;99.90;;;;;;5034464;28;20096;-66
2022/05/14 08:38:54;;;;;;;44.33;7.90;;;14.60;99.90;;;;;;5034623;28;20017;-66
2022/05/14 08:41:19;;;;;;;46.90;7.57;;;14.60;99.90;;;;;;5034825;28;20034;-66
2022/05/14 08:43:53;;;;;;;47.33;7.22;;;14.90;99.90;;;;;;5034143;28;20381;-66
2022/05/14 08:46:23;;;;;;;43.10;8.02;;;15.20;99.90;;;;;;5034691;28;20032;-66
2022/05/14 08:48:54;;;;;;;38.28;6.90;;;15.20;99.90;;;;;;5034700;28;20040;-66
2022/05/14 08:51:30;;;;;;;38.33;7.53;;;15.10;99.90;;;;;;5034724;28;20120;-66
2022/05/14 08:53:55;;;;;;;44.15;8.75;;;15.00;99.90;;;;;;5034093;28;20029;-66
2022/05/14 08:56:21;;;;;;;43.03;9.68;;;15.10;99.90;;;;;;5034209;28;20033;-66
2022/05/14 08:58:57;;;;;;;43.17;8.43;;;15.40;99.90;;;;;;5034174;28;20485;-66
2022/05/14 09:01:27;;;;;;;33.72;6.20;;;15.60;99.90;;;;;;5034236;28;20180;-66
2022/05/14 09:03:53;;;;;;;47.13;8.35;;;15.40;99.90;;;;;;5034499;28;20030;-66
2022/05/14 09:06:19;;;;;;;48.20;6.55;;;15.30;99.90;;;;;;5033524;28;20026;-66
2022/05/14 09:08:45;;;;;;;47.13;7.63;;;15.20;99.90;;;;;;5034050;28;20021;-66
2022/05/14 09:11:45;;;;;;;40.75;6.07;;;15.10;99.90;;;;;;5034137;28;20083;-66
2022/05/14 09:14:38;;;;;;;34.00;6.20;;;15.00;99.90;;;;;;5034797;28;20419;-66
2022/05/14 09:17:21;;;;;;;38.72;7.43;;;14.90;99.90;;;;;;5031390;28;20393;-66
2022/05/14 09:19:51;;;;;;;46.20;8.03;;;14.80;99.90;;;;;;5033480;28;20097;-66
2022/05/14 09:22:23;;;;;;;32.17;7.05;;;14.80;99.90;;;;;;5034102;28;20025;-66
2022/05/14 09:25:00;;;;;;;45.03;8.10;;;14.70;99.90;;;;;;5034030;28;20552;-66
2022/05/14 09:27:46;;;;;;;43.55;9.32;;;14.90;99.90;;;;;;5033770;28;20076;-66
2022/05/14 09:30:23;;;;;;;40.80;7.60;;;14.90;99.90;;;;;;5034347;28;20044;-66
2022/05/14 09:32:49;;;;;;;50.00;8.50;;;14.70;99.90;;;;;;5032737;28;20030;-66
2022/05/14 09:35:16;;;;;;;36.10;7.15;;;15.00;99.90;;;;;;5033804;28;20109;-66
2022/05/14 09:37:42;;;;;;;43.75;7.25;;;15.10;99.90;;;;;;5033793;28;20026;-66
2022/05/14 09:40:13;;;;;;;30.08;6.82;;;15.00;99.90;;;;;;5033666;28;20169;-66
2022/05/14 09:42:50;;;;;;;44.13;7.82;;;15.00;99.90;;;;;;5033266;28;20476;-66
2022/05/14 09:45:27;;;;;;;38.47;6.40;;;15.30;99.90;;;;;;5033858;28;20099;-66
2022/05/14 09:47:53;;;;;;;32.55;7.10;;;15.40;99.90;;;;;;5033719;28;20112;-66
2022/05/14 09:50:33;;;;;;;36.05;6.30;;;15.40;99.90;;;;;;5033688;28;20061;-66
2022/05/14 09:53:04;;;;;;;34.38;7.10;;;15.60;99.90;;;;;;5034182;28;20083;-66
2022/05/14 09:55:47;;;;;;;37.80;7.20;;;15.80;99.90;;;;;;5033487;28;20033;-66
2022/05/14 09:58:22;;;;;;;36.10;7.53;;;16.00;99.90;;;;;;5033290;28;20040;-66
2022/05/14 10:01:03;;;;;;;51.35;7.72;;;16.20;99.90;;;;;;5033576;28;20018;-66
2022/05/14 10:03:54;;;;;;;32.22;7.30;;;16.20;99.90;;;;;;5033564;28;20021;-66
2022/05/14 10:06:37;;;;;;;41.95;7.13;;;16.20;99.90;;;;;;5033436;28;20030;-66
2022/05/14 10:09:26;;;;;;;43.10;7.73;;;16.40;99.90;;;;;;5032883;28;20387;-66
2022/05/14 10:12:15;;;;;;;39.55;6.80;;;16.70;99.90;;;;;;5032525;28;20037;-67
2022/05/14 10:15:08;;;;;;;44.80;7.18;;;16.90;99.90;;;;;;5033199;28;20061;-67
2022/05/14 10:17:36;;;;;;;26.88;5.47;;;17.10;99.90;;;;;;5031348;28;20052;-67
2022/05/14 10:20:25;;;;;;;36.72;6.55;;;17.20;99.90;;;;;;5033043;28;20033;-67
2022/05/14 10:26:46;;;;;;;36.20;6.32;;;17.20;99.90;;;;;;5033442;28;20036;-67
2022/05/14 10:29:44;;;;;;;44.07;6.20;;;17.10;99.90;;;;;;5008135;28;20115;-67
2022/05/14 10:32:15;;;;;;;29.90;5.30;;;17.30;99.90;;;;;;5032367;28;20287;-67
2022/05/14 10:34:43;;;;;;;40.33;6.60;;;17.30;99.90;;;;;;5033291;28;20565;-67
2022/05/14 10:37:21;;;;;;;32.97;4.57;;;17.40;99.90;;;;;;5031916;28;20397;-67
2022/05/14 10:40:13;;;;;;;36.25;5.32;;;17.60;99.90;;;;;;5033094;28;20496;-68
2022/05/14 10:42:53;;;;;;;27.48;5.28;;;17.20;99.90;;;;;;5032947;28;20033;-67
2022/05/14 10:45:44;;;;;;;31.52;6.45;;;17.00;99.90;;;;;;5036859;28;20030;-68
2022/05/14 10:48:30;;;;;;;26.48;4.70;;;17.10;99.90;;;;;;5036915;28;20031;-68
2022/05/14 10:50:55;;;;;;;26.73;8.82;;;17.20;99.90;;;;;;5036476;28;20101;-68
2022/05/14 10:53:21;;;;;;;28.20;8.40;;;16.80;99.90;;;;;;5036819;28;20109;-67
2022/05/14 10:56:01;;;;;;;27.05;5.10;;;16.40;99.90;;;;;;5036602;28;20449;-68
2022/05/14 10:58:36;;;;;;;30.90;5.72;;;16.70;99.90;;;;;;5036382;28;20029;-68
2022/05/14 11:01:10;;;;;;;30.33;5.55;;;17.00;99.90;;;;;;5036333;28;20098;-67
2022/05/14 11:03:37;;;;;;;17.67;3.22;;;16.90;99.90;;;;;;5036777;28;20033;-67
2022/05/14 11:06:02;;;;;;;20.90;4.70;;;16.80;99.90;;;;;;5036730;28;20037;-67
2022/05/14 11:08:44;;;;;;;14.27;3.63;;;16.80;99.90;;;;;;5036694;28;20029;-67
2022/05/14 11:11:23;;;;;;;20.33;3.50;;;17.00;99.90;;;;;;5036284;28;20057;-67
2022/05/14 11:13:59;;;;;;;14.80;3.17;;;16.60;99.90;;;;;;5035881;28;20118;-67
2022/05/14 11:16:45;;;;;;;19.65;3.63;;;16.70;99.90;;;;;;5036614;28;20026;-67
2022/05/14 11:19:24;;;;;;;17.85;4.00;;;16.50;99.90;;;;;;5036214;28;20115;-69
2022/05/14 11:21:50;;;;;;;19.90;3.22;;;16.70;99.90;;;;;;5036329;28;20096;-68
2022/05/14 11:24:16;;;;;;;15.40;3.22;;;16.80;99.90;;;;;;5035062;28;20064;-67
2022/05/14 11:26:53;;;;;;;13.45;2.65;;;16.80;99.90;;;;;;5035711;28;20029;-68
2022/05/14 11:29:29;;;;;;;17.58;2.83;;;16.90;99.90;;;;;;5035487;28;20124;-67
2022/05/14 11:32:06;;;;;;;21.13;3.45;;;17.20;99.90;;;;;;5035846;28;20032;-67
2022/05/14 11:34:32;;;;;;;18.63;2.83;;;17.30;99.90;;;;;;5034311;28;20045;-67
2022/05/14 11:37:01;;;;;;;14.32;2.97;;;17.20;99.90;;;;;;5036033;28;20034;-67
2022/05/14 11:39:34;;;;;;;18.15;3.58;;;17.00;99.90;;;;;;5036033;28;20018;-68
2022/05/14 11:42:28;;;;;;;11.02;2.10;;;17.20;99.90;;;;;;5035534;28;20030;-67
2022/05/14 11:45:00;;;;;;;;;;;17.10;99.90;;;;;;5036013;28;20040;-67
2022/05/14 11:47:49;;;;;;;20.48;3.70;;;17.00;99.90;;;;;;5035612;28;19908;-67
2022/05/14 11:50:18;;;;;;;15.10;3.13;;;17.30;99.90;;;;;;5035643;28;20044;-68
2022/05/14 11:53:02;;;;;;;17.65;3.08;;;17.70;99.90;;;;;;5035247;28;20056;-68
2022/05/14 11:56:05;;;;;;;15.30;3.35;;;17.90;99.90;;;;;;5034376;28;20473;-67
2022/05/14 11:58:31;;;;;;;12.65;3.28;;;18.00;99.90;;;;;;5053178;22;20118;-69
2022/05/14 12:00:58;;;;;;;17.55;3.95;;;18.00;99.90;;;;;;5054997;28;20055;-69
2022/05/14 12:03:31;;;;;;;19.98;3.78;;;18.30;99.90;;;;;;5055548;28;20025;-69
2022/05/14 12:06:05;;;;;;;54.42;20.80;;;18.30;99.90;;;;;;5055406;28;20036;-69
2022/05/14 12:08:52;;;;;;;17.33;5.13;;;18.40;99.90;;;;;;5055505;28;20032;-69
2022/05/14 12:11:48;;;;;;;25.23;4.97;;;18.20;99.90;;;;;;5053572;28;20106;-70
2022/05/14 12:14:16;;;;;;;17.70;3.67;;;18.00;99.90;;;;;;5055533;28;20032;-70
2022/05/14 12:16:53;;;;;;;18.50;3.30;;;18.10;99.90;;;;;;5055583;28;20468;-70
2022/05/14 12:19:27;;;;;;;16.98;3.17;;;18.60;99.90;;;;;;5054620;28;20026;-70
2022/05/14 12:22:02;;;;;;;15.00;2.70;;;19.20;99.90;;;;;;5055201;28;20023;-70
2022/05/14 12:24:34;;;;;;;16.40;4.00;;;19.30;99.90;;;;;;5054980;28;20025;-70
2022/05/14 12:27:00;;;;;;;24.98;3.63;;;18.90;99.90;;;;;;5055510;28;20413;-69
2022/05/14 12:29:30;;;;;;;15.20;2.60;;;19.20;99.90;;;;;;5053072;28;20021;-69
2022/05/14 12:34:56;;;;;;;12.98;2.42;;;19.20;99.90;;;;;;5053180;28;20121;-69
2022/05/14 12:37:34;;;;;;;16.23;2.60;;;19.40;99.90;;;;;;5052942;28;20108;-69
2022/05/14 12:40:00;;;;;;;13.48;2.50;;;19.60;99.90;;;;;;5055407;28;20068;-69
2022/05/14 12:42:36;;;;;;;13.38;2.78;;;20.20;99.90;;;;;;5055072;28;20070;-69
2022/05/14 12:45:02;;;;;;;11.93;2.63;;;20.40;99.90;;;;;;5050369;28;20366;-69
2022/05/14 12:47:29;;;;;;;15.93;3.38;;;19.90;99.90;;;;;;5051500;28;20040;-69
2022/05/14 12:49:56;;;;;;;10.32;3.17;;;19.50;99.90;;;;;;5053803;28;20025;-69
2022/05/14 12:52:28;;;;;;;9.85;2.92;;;19.30;99.90;;;;;;5053712;28;20166;-68
2022/05/14 12:55:14;;;;;;;16.27;2.58;;;19.50;99.90;;;;;;5053395;28;20052;-68
2022/05/14 12:57:46;;;;;;;13.05;2.50;;;19.10;99.90;;;;;;5050855;28;20027;-69
2022/05/14 13:00:15;;;;;;;6.65;2.05;;;18.60;99.90;;;;;;5057796;28;20117;-69
2022/05/14 13:03:19;;;;;;;23.00;3.08;;;18.70;99.90;;;;;;5054659;28;20099;-70
2022/05/14 13:05:54;;;;;;;12.30;2.67;;;18.90;99.90;;;;;;5051874;28;20112;-70
2022/05/14 13:08:22;;;;;;;12.85;2.28;;;19.10;99.90;;;;;;5052720;28;20017;-69
2022/05/14 13:10:58;;;;;;;8.15;2.30;;;19.30;99.90;;;;;;5052881;28;20079;-69
2022/05/14 13:13:39;;;;;;;12.85;2.90;;;19.60;99.90;;;;;;5053619;28;20444;-70